Time;durP1;ratioP1;P1;durP2;ratioP2;P2;SDS_P1;SDS_P2;PMS_P1;PMS_P2;Temp;Humidity;BMP_temperature;BMP_pressure;BME280_temperature;BME280_humidity;BME280_pressure;Samples;Min_cycle;Max_cycle;Signal;HPM_P1;HPM_P2
2022/09/17 00:00:22;;;;;;;2.97;2.05;;;18.50;87.50;;;;;;5053890;28;21352;-75
2022/09/17 00:02:56;;;;;;;2.78;2.25;;;18.60;88.90;;;;;;5057944;28;20663;-74
2022/09/17 00:05:23;;;;;;;4.03;2.40;;;18.50;87.00;;;;;;5057065;28;20186;-73
2022/09/17 00:07:50;;;;;;;3.83;2.40;;;18.50;88.00;;;;;;5060430;28;20568;-74
2022/09/17 00:10:17;;;;;;;2.10;2.00;;;18.50;88.10;;;;;;5051797;28;20183;-74
2022/09/17 00:12:43;;;;;;;2.13;2.03;;;18.50;90.20;;;;;;5057930;28;20183;-74
2022/09/17 00:15:09;;;;;;;3.15;1.83;;;18.50;89.10;;;;;;5053842;28;20726;-74
2022/09/17 00:17:34;;;;;;;1.80;1.70;;;18.50;89.50;;;;;;5049946;28;20661;-74
2022/09/17 00:20:00;;;;;;;2.72;2.15;;;18.50;91.30;;;;;;5052013;28;20183;-74
2022/09/17 00:22:26;;;;;;;2.17;2.08;;;18.50;90.30;;;;;;5059105;28;20191;-74
2022/09/17 00:24:52;;;;;;;2.20;2.10;;;18.40;89.10;;;;;;5058486;28;20182;-74
2022/09/17 00:27:17;;;;;;;2.22;1.95;;;18.50;90.70;;;;;;5060286;28;20186;-74
2022/09/17 00:29:43;;;;;;;2.20;2.10;;;18.50;90.80;;;;;;5053700;28;20193;-74
2022/09/17 00:32:09;;;;;;;2.45;2.25;;;18.40;89.60;;;;;;5053825;28;20180;-74
2022/09/17 00:34:34;;;;;;;2.17;2.00;;;18.50;90.80;;;;;;5054415;28;20191;-75
2022/09/17 00:37:00;;;;;;;4.60;1.80;;;18.40;89.50;;;;;;5050697;28;20234;-74
2022/09/17 00:39:26;;;;;;;1.50;1.38;;;18.40;89.30;;;;;;5049888;28;20696;-74
2022/09/17 00:41:52;;;;;;;1.90;1.80;;;18.40;91.40;;;;;;5047089;28;20184;-74
2022/09/17 00:44:40;;;;;;;1.98;1.80;;;18.40;90.50;;;;;;5048234;28;20202;-74
2022/09/17 00:47:25;;;;;;;2.03;1.92;;;18.40;89.10;;;;;;5046446;28;20198;-72
2022/09/17 00:50:01;;;;;;;1.73;1.63;;;18.40;89.90;;;;;;5008565;28;20196;-73
2022/09/17 00:52:40;;;;;;;2.42;1.67;;;18.40;89.50;;;;;;5014314;28;20196;-72
2022/09/17 00:55:32;;;;;;;2.83;1.63;;;18.40;91.30;;;;;;5009721;28;22015;-74
2022/09/17 00:58:01;;;;;;;2.55;1.98;;;18.30;89.60;;;;;;5013824;28;20200;-74
2022/09/17 01:00:29;;;;;;;1.75;1.65;;;18.20;89.60;;;;;;4990677;28;20188;-72
2022/09/17 01:02:56;;;;;;;2.83;1.73;;;18.20;89.70;;;;;;5005472;28;20757;-73
2022/09/17 01:05:31;;;;;;;1.67;1.67;;;18.20;89.20;;;;;;5013190;28;20327;-74
2022/09/17 01:08:15;;;;;;;2.47;1.90;;;18.30;90.50;;;;;;4993265;28;20693;-73
2022/09/17 01:10:59;;;;;;;1.95;1.85;;;18.30;90.00;;;;;;5008619;28;20269;-74
2022/09/17 01:13:37;;;;;;;3.03;1.80;;;18.20;89.20;;;;;;5005767;28;20204;-74
2022/09/17 01:16:11;;;;;;;2.22;1.67;;;18.20;88.70;;;;;;5009627;28;20220;-74
2022/09/17 01:19:03;;;;;;;1.95;1.48;;;18.20;91.10;;;;;;5014517;28;20262;-73
2022/09/17 01:21:38;;;;;;;4.18;1.80;;;18.20;90.00;;;;;;5013980;28;20575;-74
2022/09/17 01:24:31;;;;;;;2.03;1.92;;;18.20;92.80;;;;;;5010082;28;20189;-74
2022/09/17 01:27:19;;;;;;;5.05;1.67;;;18.20;89.90;;;;;;5029744;28;20286;-74
2022/09/17 01:29:53;;;;;;;3.75;1.58;;;18.10;91.50;;;;;;5050415;28;20190;-74
2022/09/17 01:32:25;;;;;;;4.28;2.60;;;18.10;90.60;;;;;;5052152;28;20191;-74
2022/09/17 01:35:21;;;;;;;5.88;1.70;;;18.20;90.90;;;;;;5044842;28;20579;-73
2022/09/17 01:38:25;;;;;;;2.80;1.70;;;18.20;89.70;;;;;;5052530;28;20673;-73
2022/09/17 01:41:11;;;;;;;4.05;2.30;;;18.20;91.90;;;;;;5051793;28;20222;-74
2022/09/17 01:43:55;;;;;;;1.50;1.45;;;18.30;92.20;;;;;;5048942;28;20210;-74
2022/09/17 01:46:28;;;;;;;2.03;1.90;;;18.20;92.60;;;;;;5053097;28;20183;-74
2022/09/17 01:48:59;;;;;;;2.33;1.70;;;18.20;91.80;;;;;;5053338;28;20661;-73
2022/09/17 01:51:28;;;;;;;2.53;1.23;;;18.20;92.70;;;;;;5051570;28;20187;-74
2022/09/17 01:54:14;;;;;;;1.85;1.52;;;18.10;92.70;;;;;;5048863;28;20187;-75
2022/09/17 01:57:07;;;;;;;1.63;1.52;;;18.10;91.50;;;;;;5046386;28;20608;-74
2022/09/17 01:59:51;;;;;;;2.90;1.80;;;18.10;91.70;;;;;;5008342;28;20192;-73
2022/09/17 02:02:20;;;;;;;1.83;1.20;;;18.10;91.80;;;;;;5010461;28;20215;-73
2022/09/17 02:04:56;;;;;;;1.45;1.42;;;18.10;91.40;;;;;;5007947;28;20783;-73
2022/09/17 02:07:24;;;;;;;25.00;1.90;;;18.10;90.60;;;;;;5006559;28;20638;-73
2022/09/17 02:10:15;;;;;;;3.42;1.63;;;18.10;93.50;;;;;;5027296;28;20297;-73
2022/09/17 02:12:45;;;;;;;2.53;1.80;;;18.10;91.30;;;;;;5011333;28;20224;-73
2022/09/17 02:15:19;;;;;;;3.08;1.50;;;18.20;92.90;;;;;;5007041;28;20213;-73
2022/09/17 02:18:09;;;;;;;1.27;1.27;;;18.20;93.00;;;;;;5013565;28;20196;-73
2022/09/17 02:20:45;;;;;;;1.50;1.30;;;18.20;92.90;;;;;;5011839;28;20191;-74
2022/09/17 02:23:23;;;;;;;1.58;1.58;;;18.20;95.10;;;;;;5013313;28;20200;-74
2022/09/17 02:26:01;;;;;;;3.15;1.45;;;18.10;94.00;;;;;;5007018;28;20200;-74
2022/09/17 02:28:39;;;;;;;1.30;1.30;;;18.10;92.60;;;;;;5007542;28;20209;-74
2022/09/17 02:31:05;;;;;;;0.88;0.88;;;18.10;93.00;;;;;;5012894;28;20247;-74
2022/09/17 02:33:34;;;;;;;1.42;1.33;;;18.10;92.30;;;;;;5005442;28;20189;-74
2022/09/17 02:36:00;;;;;;;1.17;1.17;;;18.10;92.00;;;;;;5018571;28;20222;-74
2022/09/17 02:38:29;;;;;;;2.20;1.27;;;18.10;92.10;;;;;;5048566;28;20666;-74
2022/09/17 02:41:16;;;;;;;1.52;1.00;;;18.20;92.90;;;;;;5049700;28;20179;-74
2022/09/17 02:43:55;;;;;;;2.05;1.20;;;18.20;92.10;;;;;;5044388;28;20192;-74
2022/09/17 02:46:24;;;;;;;6.43;1.50;;;18.20;91.80;;;;;;5050563;28;20202;-73
2022/09/17 02:49:00;;;;;;;2.17;1.45;;;18.20;93.10;;;;;;5053498;28;20248;-73
2022/09/17 02:51:49;;;;;;;2.88;1.23;;;18.20;92.30;;;;;;5047722;28;20190;-73
2022/09/17 02:54:30;;;;;;;1.17;1.00;;;18.20;91.80;;;;;;5052154;28;20180;-74
2022/09/17 02:56:59;;;;;;;1.83;1.48;;;18.20;91.30;;;;;;5051405;28;20211;-74
2022/09/17 02:59:50;;;;;;;0.98;0.98;;;18.20;92.20;;;;;;5050595;28;20274;-75
2022/09/17 03:02:25;;;;;;;1.58;0.85;;;18.30;92.30;;;;;;5055554;28;20194;-73
2022/09/17 03:04:51;;;;;;;1.95;1.10;;;18.20;92.60;;;;;;5047531;28;20174;-74
2022/09/17 03:07:19;;;;;;;2.95;1.02;;;18.10;92.60;;;;;;5049935;28;20267;-74
2022/09/17 03:09:45;;;;;;;1.15;1.15;;;18.00;92.60;;;;;;5050987;28;20270;-74
2022/09/17 03:12:12;;;;;;;1.00;1.00;;;18.00;91.90;;;;;;5049271;28;20271;-74
2022/09/17 03:14:37;;;;;;;1.08;1.08;;;17.90;91.80;;;;;;5052943;28;20659;-73
2022/09/17 03:17:03;;;;;;;0.75;0.75;;;17.90;91.20;;;;;;5055088;28;20219;-72
2022/09/17 03:19:29;;;;;;;1.33;1.33;;;17.90;90.90;;;;;;5049739;28;20191;-75
2022/09/17 03:21:54;;;;;;;1.25;1.25;;;17.90;90.80;;;;;;5046114;28;20293;-74
2022/09/17 03:24:20;;;;;;;1.58;1.35;;;18.00;92.90;;;;;;5053587;28;20610;-74
2022/09/17 03:26:48;;;;;;;1.35;1.25;;;18.00;92.50;;;;;;5052383;28;20210;-74
2022/09/17 03:29:14;;;;;;;2.58;1.05;;;18.00;92.00;;;;;;5050661;28;20179;-73
2022/09/17 03:31:40;;;;;;;1.00;1.00;;;18.00;91.40;;;;;;5053271;28;20228;-73
2022/09/17 03:34:06;;;;;;;1.08;1.08;;;18.00;92.90;;;;;;5050845;28;20703;-74
2022/09/17 03:36:32;;;;;;;2.30;1.25;;;18.10;92.80;;;;;;5053760;28;20214;-74
2022/09/17 03:38:58;;;;;;;1.52;1.42;;;18.00;92.80;;;;;;5046499;28;20186;-73
2022/09/17 03:41:24;;;;;;;1.67;1.42;;;18.00;93.00;;;;;;5054410;28;20183;-73
2022/09/17 03:43:50;;;;;;;3.20;1.45;;;17.90;93.80;;;;;;5047536;28;20569;-73
2022/09/17 03:46:17;;;;;;;1.60;1.55;;;17.80;93.90;;;;;;5048527;28;20206;-74
2022/09/17 03:48:43;;;;;;;1.08;1.08;;;17.80;93.50;;;;;;5044869;28;20187;-74
2022/09/17 03:51:10;;;;;;;1.80;1.30;;;17.80;92.80;;;;;;5049061;28;20187;-74
2022/09/17 03:53:36;;;;;;;3.30;1.30;;;17.80;94.00;;;;;;5048980;28;20211;-74
2022/09/17 03:56:04;;;;;;;3.35;1.80;;;17.80;94.00;;;;;;5053238;28;20725;-74
2022/09/17 03:58:30;;;;;;;2.67;1.08;;;17.80;93.30;;;;;;5048971;28;20207;-74
2022/09/17 04:00:56;;;;;;;1.35;1.35;;;17.80;93.30;;;;;;5054543;28;20183;-74
2022/09/17 04:03:26;;;;;;;1.30;1.15;;;17.80;93.30;;;;;;5052336;28;20179;-74
2022/09/17 04:05:53;;;;;;;2.28;1.73;;;17.90;93.10;;;;;;5046811;28;20581;-74
2022/09/17 04:08:19;;;;;;;2.45;1.20;;;17.90;93.40;;;;;;5050259;28;20999;-74
2022/09/17 04:10:45;;;;;;;1.20;1.20;;;17.90;93.30;;;;;;5051658;28;21722;-74
2022/09/17 04:13:12;;;;;;;1.50;1.25;;;18.00;93.60;;;;;;5046466;28;20190;-73
2022/09/17 04:15:38;;;;;;;1.23;1.15;;;18.10;93.40;;;;;;5047707;28;20239;-74
2022/09/17 04:18:04;;;;;;;1.20;1.10;;;18.10;93.20;;;;;;5045723;28;20183;-73
2022/09/17 04:20:30;;;;;;;0.93;0.80;;;18.10;93.20;;;;;;5048608;28;20237;-73
2022/09/17 04:22:55;;;;;;;1.25;1.17;;;18.10;92.50;;;;;;5047839;28;20186;-73
2022/09/17 04:25:21;;;;;;;3.03;1.23;;;18.10;93.20;;;;;;5046003;28;20229;-74
2022/09/17 04:27:47;;;;;;;3.10;1.30;;;18.20;93.40;;;;;;5050031;28;20226;-74
2022/09/17 04:30:13;;;;;;;1.17;1.17;;;18.20;93.50;;;;;;5054056;28;20716;-74
2022/09/17 04:32:39;;;;;;;1.35;1.35;;;18.20;93.70;;;;;;5045930;28;20571;-74
2022/09/17 04:35:05;;;;;;;2.92;1.23;;;18.20;94.10;;;;;;5050833;28;20191;-74
2022/09/17 04:37:31;;;;;;;4.18;1.45;;;18.20;93.40;;;;;;5054137;28;20244;-74
2022/09/17 04:39:57;;;;;;;3.83;1.58;;;18.20;93.00;;;;;;5055527;28;20183;-74
2022/09/17 04:42:23;;;;;;;1.80;1.75;;;18.20;94.40;;;;;;5045441;28;20184;-74
2022/09/17 04:44:48;;;;;;;1.95;1.80;;;18.30;93.90;;;;;;5050907;28;20201;-73
2022/09/17 04:47:14;;;;;;;1.42;1.35;;;18.30;94.20;;;;;;5049803;28;20183;-73
2022/09/17 04:49:40;;;;;;;1.45;1.35;;;18.20;95.10;;;;;;5054487;28;20188;-74
2022/09/17 04:52:05;;;;;;;1.92;1.70;;;18.20;94.40;;;;;;5055161;28;20273;-74
2022/09/17 04:54:31;;;;;;;1.40;1.30;;;18.30;94.00;;;;;;5052416;28;20210;-74
2022/09/17 04:56:58;;;;;;;2.60;1.15;;;18.30;94.00;;;;;;5052020;28;20760;-74
2022/09/17 04:59:23;;;;;;;1.60;1.50;;;18.30;94.50;;;;;;5083179;28;20191;-75
2022/09/17 05:01:49;;;;;;;1.60;1.50;;;18.30;94.40;;;;;;5057656;28;20622;-74
2022/09/17 05:04:15;;;;;;;3.10;1.45;;;18.30;93.90;;;;;;5052225;28;20818;-74
2022/09/17 05:06:40;;;;;;;4.68;1.40;;;18.40;94.10;;;;;;5048803;28;20643;-74
2022/09/17 05:09:06;;;;;;;1.35;1.25;;;18.40;94.50;;;;;;5050082;28;20180;-73
2022/09/17 05:11:32;;;;;;;1.30;0.80;;;18.50;94.20;;;;;;5048677;28;20265;-74
2022/09/17 05:13:58;;;;;;;3.20;0.82;;;18.50;94.00;;;;;;5048362;28;20735;-74
2022/09/17 05:16:23;;;;;;;1.85;0.60;;;18.60;93.70;;;;;;5052850;28;20212;-75
2022/09/17 05:18:50;;;;;;;2.75;0.82;;;18.60;93.70;;;;;;5052741;28;20185;-75
2022/09/17 05:21:16;;;;;;;1.35;0.55;;;18.70;93.80;;;;;;5058563;28;20183;-73
2022/09/17 05:23:42;;;;;;;3.67;0.70;;;18.70;93.90;;;;;;5050248;28;20222;-75
2022/09/17 05:26:08;;;;;;;1.02;0.60;;;18.80;94.00;;;;;;5049568;28;20188;-75
2022/09/17 05:28:34;;;;;;;0.65;0.60;;;18.90;93.20;;;;;;5053460;28;20308;-75
2022/09/17 05:31:00;;;;;;;0.57;0.55;;;19.00;92.60;;;;;;5047820;28;20183;-75
2022/09/17 05:33:26;;;;;;;3.22;0.60;;;19.10;92.50;;;;;;5052464;28;20718;-74
2022/09/17 05:35:52;;;;;;;0.68;0.65;;;19.20;92.30;;;;;;5052602;28;20203;-74
2022/09/17 05:38:18;;;;;;;0.60;0.60;;;19.30;92.10;;;;;;5055286;28;20563;-73
2022/09/17 05:40:44;;;;;;;0.55;0.55;;;19.30;92.00;;;;;;5047854;28;20257;-75
2022/09/17 05:43:10;;;;;;;1.58;0.90;;;19.40;92.00;;;;;;5048630;28;20223;-71
2022/09/17 05:45:37;;;;;;;1.15;1.05;;;19.40;92.00;;;;;;5052314;28;20195;-74
2022/09/17 05:48:05;;;;;;;3.00;1.15;;;19.40;91.80;;;;;;5055736;28;20188;-74
2022/09/17 05:50:31;;;;;;;1.48;1.10;;;19.50;91.50;;;;;;5048222;28;20183;-73
2022/09/17 05:53:02;;;;;;;4.28;1.20;;;19.50;91.40;;;;;;5055301;28;20188;-73
2022/09/17 05:55:28;;;;;;;1.70;1.33;;;19.60;91.70;;;;;;5050394;28;20853;-71
2022/09/17 05:57:54;;;;;;;2.30;1.55;;;19.60;91.20;;;;;;5053026;28;20215;-73
2022/09/17 06:00:19;;;;;;;1.33;1.10;;;19.60;91.60;;;;;;5057603;28;20184;-73
2022/09/17 06:02:45;;;;;;;1.92;1.10;;;19.60;91.30;;;;;;5047789;28;20291;-74
2022/09/17 06:05:11;;;;;;;4.00;1.48;;;19.60;91.50;;;;;;5051518;28;20190;-74
2022/09/17 06:07:37;;;;;;;1.42;1.33;;;19.60;91.50;;;;;;5048170;28;20187;-73
2022/09/17 06:10:05;;;;;;;5.80;1.75;;;19.60;91.00;;;;;;5049754;28;20253;-73
2022/09/17 06:12:31;;;;;;;4.15;1.63;;;19.70;91.20;;;;;;5048077;28;20191;-74
2022/09/17 06:14:57;;;;;;;3.70;2.03;;;19.70;91.20;;;;;;5047430;28;20839;-75
2022/09/17 06:17:22;;;;;;;2.15;1.77;;;19.70;90.80;;;;;;5056350;28;20191;-73
2022/09/17 06:19:48;;;;;;;4.80;1.60;;;19.70;90.80;;;;;;5047361;28;20187;-73
2022/09/17 06:22:16;;;;;;;3.22;1.33;;;19.70;90.50;;;;;;5051825;28;20187;-73
2022/09/17 06:24:42;;;;;;;1.17;1.17;;;19.70;91.20;;;;;;5052353;28;20183;-74
2022/09/17 06:27:07;;;;;;;1.80;1.55;;;19.80;91.60;;;;;;5048721;28;20246;-74
2022/09/17 06:29:33;;;;;;;4.72;1.65;;;19.70;91.60;;;;;;5056460;28;20914;-74
2022/09/17 06:31:59;;;;;;;3.70;1.67;;;19.70;91.50;;;;;;5051737;28;20663;-74
2022/09/17 06:34:25;;;;;;;4.80;3.38;;;19.70;91.80;;;;;;5054698;28;20172;-73
2022/09/17 06:36:51;;;;;;;4.55;2.08;;;19.80;91.90;;;;;;5050166;28;20219;-73
2022/09/17 06:39:16;;;;;;;2.53;1.38;;;19.80;91.50;;;;;;5046997;28;20201;-73
2022/09/17 06:41:42;;;;;;;3.10;0.65;;;19.80;91.50;;;;;;5052271;28;20186;-73
2022/09/17 06:44:08;;;;;;;2.25;0.93;;;19.80;91.10;;;;;;5052316;28;20191;-74
2022/09/17 06:46:34;;;;;;;1.05;0.60;;;19.80;91.10;;;;;;5053503;28;20191;-73
2022/09/17 06:48:59;;;;;;;0.90;0.85;;;19.80;90.90;;;;;;5051525;28;20176;-74
2022/09/17 06:51:25;;;;;;;0.85;0.85;;;19.80;90.50;;;;;;5057199;28;20240;-73
2022/09/17 06:53:51;;;;;;;2.15;1.33;;;19.70;90.60;;;;;;5051473;28;20191;-73
2022/09/17 06:56:16;;;;;;;5.80;1.10;;;19.80;90.60;;;;;;5050992;28;20219;-73
2022/09/17 06:58:42;;;;;;;3.45;1.80;;;19.80;90.30;;;;;;5052219;28;20259;-73
2022/09/17 07:01:10;;;;;;;1.52;1.52;;;19.80;90.20;;;;;;5048116;28;20182;-73
2022/09/17 07:03:36;;;;;;;1.55;1.45;;;19.80;90.00;;;;;;5053428;28;20223;-72
2022/09/17 07:06:02;;;;;;;3.42;1.23;;;19.90;90.80;;;;;;5059133;28;20190;-73
2022/09/17 07:08:30;;;;;;;5.78;1.00;;;20.00;92.00;;;;;;5052476;28;20176;-73
2022/09/17 07:10:56;;;;;;;2.17;0.90;;;20.00;91.30;;;;;;5048928;28;20203;-73
2022/09/17 07:13:23;;;;;;;0.68;0.68;;;20.00;90.70;;;;;;5051463;28;20255;-73
2022/09/17 07:15:57;;;;;;;4.68;1.08;;;20.00;90.90;;;;;;5049992;28;20214;-73
2022/09/17 07:18:23;;;;;;;1.10;1.05;;;20.10;90.20;;;;;;5050273;28;20180;-73
2022/09/17 07:20:56;;;;;;;2.70;1.27;;;20.30;90.90;;;;;;5057712;28;20190;-73
2022/09/17 07:23:27;;;;;;;1.95;1.17;;;20.40;90.50;;;;;;5051366;28;20186;-73
2022/09/17 07:25:55;;;;;;;1.95;1.20;;;20.50;90.60;;;;;;5049041;28;20183;-73
2022/09/17 07:28:21;;;;;;;0.90;0.90;;;20.70;91.20;;;;;;5048765;28;20187;-73
2022/09/17 07:30:47;;;;;;;2.92;1.08;;;20.90;91.30;;;;;;5046404;28;20172;-74
2022/09/17 07:33:15;;;;;;;1.17;0.88;;;21.00;90.80;;;;;;5050008;28;20653;-72
2022/09/17 07:35:40;;;;;;;2.65;1.35;;;21.20;90.80;;;;;;5049497;28;20211;-74
2022/09/17 07:38:06;;;;;;;5.10;1.58;;;21.30;90.50;;;;;;5056831;28;20818;-73
2022/09/17 07:40:32;;;;;;;2.15;1.20;;;21.40;90.50;;;;;;5048779;28;20787;-73
2022/09/17 07:42:57;;;;;;;1.85;1.50;;;21.60;90.30;;;;;;5052074;28;20227;-73
2022/09/17 07:45:23;;;;;;;1.58;1.40;;;21.70;90.10;;;;;;5050537;28;20183;-73
2022/09/17 07:47:49;;;;;;;3.42;1.75;;;21.80;89.80;;;;;;5048769;28;20230;-73
2022/09/17 07:50:15;;;;;;;1.80;1.70;;;21.90;89.40;;;;;;5050732;28;20178;-73
2022/09/17 07:52:47;;;;;;;3.90;1.40;;;22.00;89.50;;;;;;5047624;28;20184;-73
2022/09/17 07:55:14;;;;;;;2.08;1.30;;;22.10;88.70;;;;;;5048327;28;20179;-72
2022/09/17 07:57:40;;;;;;;3.58;1.42;;;22.20;88.50;;;;;;5051369;28;20182;-74
2022/09/17 08:00:07;;;;;;;2.45;1.35;;;22.30;88.70;;;;;;5057153;28;20182;-72
2022/09/17 08:02:32;;;;;;;3.38;1.52;;;22.40;87.80;;;;;;5050911;28;20209;-72
2022/09/17 08:04:58;;;;;;;2.88;1.20;;;22.50;87.90;;;;;;5050303;28;20270;-73
2022/09/17 08:07:23;;;;;;;3.17;1.10;;;22.70;88.20;;;;;;5054344;28;20657;-73
2022/09/17 08:09:50;;;;;;;1.13;0.80;;;22.80;87.20;;;;;;5051131;28;21791;-73
2022/09/17 08:12:17;;;;;;;6.78;1.33;;;23.00;87.10;;;;;;5046671;28;21089;-74
2022/09/17 08:14:43;;;;;;;2.70;1.00;;;23.30;85.30;;;;;;5056543;28;20260;-74
2022/09/17 08:17:08;;;;;;;2.67;1.10;;;23.40;84.80;;;;;;5055347;28;20277;-74
2022/09/17 08:19:34;;;;;;;3.35;1.02;;;23.60;85.10;;;;;;5056761;28;20215;-74
2022/09/17 08:22:00;;;;;;;0.95;0.95;;;23.70;84.80;;;;;;5053082;28;20187;-74
2022/09/17 08:24:26;;;;;;;1.65;0.95;;;23.90;84.10;;;;;;5050929;28;20631;-74
2022/09/17 08:26:52;;;;;;;1.02;0.98;;;23.90;82.80;;;;;;5045335;28;20214;-74
2022/09/17 08:29:18;;;;;;;1.45;0.88;;;24.10;82.80;;;;;;5056519;28;20202;-75
2022/09/17 08:31:44;;;;;;;1.20;0.68;;;24.30;83.20;;;;;;5056393;28;20270;-74
2022/09/17 08:34:10;;;;;;;0.73;0.73;;;24.60;82.50;;;;;;5057011;28;20715;-75
2022/09/17 08:36:36;;;;;;;2.67;0.93;;;25.00;81.90;;;;;;5062329;28;20211;-75
2022/09/17 08:39:03;;;;;;;0.63;0.60;;;25.50;80.10;;;;;;5060877;28;20550;-75
2022/09/17 08:41:40;;;;;;;1.75;0.70;;;25.80;78.90;;;;;;5053032;28;20263;-74
2022/09/17 08:44:14;;;;;;;0.50;0.50;;;26.00;78.00;;;;;;5054914;28;20677;-74
2022/09/17 08:46:51;;;;;;;1.33;0.93;;;26.20;76.40;;;;;;5055036;28;20191;-74
2022/09/17 08:49:46;;;;;;;2.38;0.75;;;26.30;75.70;;;;;;5049593;28;20180;-75
2022/09/17 08:52:12;;;;;;;1.30;0.70;;;26.40;76.20;;;;;;5054233;28;20187;-75
2022/09/17 08:54:55;;;;;;;1.75;0.55;;;26.40;75.90;;;;;;5051501;28;20199;-73
2022/09/17 08:58:04;;;;;;;2.38;0.63;;;26.50;74.70;;;;;;5056515;28;20215;-73
2022/09/17 09:00:57;;;;;;;2.90;0.50;;;26.40;74.40;;;;;;4989573;28;20212;-74
2022/09/17 09:03:31;;;;;;;0.80;0.80;;;26.30;73.30;;;;;;4926644;29;20673;-73
2022/09/17 09:05:59;;;;;;;0.80;0.70;;;25.90;74.30;;;;;;4929030;29;21121;-72
2022/09/17 09:08:42;;;;;;;2.83;0.63;;;25.60;75.10;;;;;;4934756;29;20192;-74
2022/09/17 09:11:15;;;;;;;1.77;0.88;;;25.40;76.00;;;;;;4927444;29;20640;-75
2022/09/17 09:13:48;;;;;;;2.30;0.85;;;25.10;75.60;;;;;;4936638;29;20724;-74
2022/09/17 09:16:24;;;;;;;1.20;1.10;;;24.90;76.50;;;;;;4934448;29;20294;-75
2022/09/17 09:18:54;;;;;;;3.67;0.90;;;24.80;76.20;;;;;;4933594;29;20187;-75
2022/09/17 09:21:25;;;;;;;0.43;0.43;;;24.70;76.90;;;;;;4930360;28;20311;-75
2022/09/17 09:24:06;;;;;;;1.77;0.70;;;24.40;76.80;;;;;;4931275;29;20946;-71
2022/09/17 09:26:37;;;;;;;0.50;0.50;;;24.30;77.80;;;;;;4935937;29;20580;-74
2022/09/17 09:29:13;;;;;;;1.38;0.60;;;24.10;79.40;;;;;;4929750;29;20673;-71
2022/09/17 09:32:00;;;;;;;2.38;0.60;;;24.00;79.80;;;;;;4929985;29;20213;-75
2022/09/17 09:34:28;;;;;;;0.88;0.60;;;23.90;79.70;;;;;;4959079;28;21692;-75
2022/09/17 09:37:16;;;;;;;0.60;0.50;;;23.80;79.70;;;;;;4989925;28;21093;-71
2022/09/17 09:39:44;;;;;;;3.05;0.90;;;23.70;80.10;;;;;;4995710;28;20207;-74
2022/09/17 09:42:24;;;;;;;1.08;0.63;;;23.60;81.00;;;;;;5050344;28;20193;-75
2022/09/17 09:44:50;;;;;;;1.27;0.70;;;23.60;81.10;;;;;;5052730;28;20904;-76
2022/09/17 09:47:25;;;;;;;3.70;0.63;;;23.50;81.10;;;;;;5053839;28;20187;-74
2022/09/17 09:49:52;;;;;;;0.70;0.50;;;23.40;81.30;;;;;;5052936;28;20294;-73
2022/09/17 09:52:39;;;;;;;3.50;0.77;;;23.30;82.10;;;;;;5046863;28;20202;-73
2022/09/17 09:55:14;;;;;;;1.85;0.68;;;23.20;82.20;;;;;;5056771;28;20183;-73
2022/09/17 09:57:46;;;;;;;2.80;1.20;;;23.20;81.70;;;;;;5051795;28;20755;-74
2022/09/17 10:00:34;;;;;;;1.27;1.10;;;23.10;81.90;;;;;;5045691;28;20194;-76
2022/09/17 10:03:23;;;;;;;0.73;0.73;;;23.00;82.90;;;;;;5049784;28;20180;-76
2022/09/17 10:06:03;;;;;;;1.98;0.70;;;22.80;83.70;;;;;;5045826;28;20582;-76
2022/09/17 10:08:34;;;;;;;2.53;0.95;;;22.70;82.80;;;;;;5049599;28;20577;-76
2022/09/17 10:11:22;;;;;;;1.75;0.60;;;22.60;83.50;;;;;;5044248;28;20266;-75
2022/09/17 10:13:48;;;;;;;1.70;1.30;;;22.50;83.70;;;;;;5052680;28;20184;-76
2022/09/17 10:16:20;;;;;;;3.90;1.02;;;22.50;84.20;;;;;;5049334;28;20219;-76
2022/09/17 10:18:47;;;;;;;3.15;1.20;;;22.40;84.10;;;;;;5052041;28;20186;-76
2022/09/17 10:21:30;;;;;;;1.33;1.30;;;22.30;84.90;;;;;;5051177;28;20262;-74
2022/09/17 10:23:57;;;;;;;1.45;1.38;;;22.20;85.90;;;;;;5048323;28;20885;-74
2022/09/17 10:26:30;;;;;;;3.10;1.35;;;22.00;84.50;;;;;;5045931;28;20195;-73
2022/09/17 10:28:59;;;;;;;2.75;1.17;;;21.90;85.10;;;;;;5050329;28;20266;-74
2022/09/17 10:31:25;;;;;;;2.72;1.27;;;21.70;86.60;;;;;;5056100;28;20191;-74
2022/09/17 10:33:57;;;;;;;2.25;1.02;;;21.60;86.60;;;;;;5056214;28;20176;-74
2022/09/17 10:36:48;;;;;;;1.13;1.02;;;21.50;86.70;;;;;;5053929;28;20215;-74
2022/09/17 10:39:26;;;;;;;3.42;1.40;;;21.30;88.30;;;;;;5055651;28;20241;-74
2022/09/17 10:42:12;;;;;;;1.85;1.20;;;21.30;87.60;;;;;;5060030;28;20217;-73
2022/09/17 10:44:56;;;;;;;2.58;1.25;;;21.30;87.60;;;;;;5052409;28;20190;-74
2022/09/17 10:47:30;;;;;;;1.75;1.45;;;21.10;89.00;;;;;;5051803;28;20209;-74
2022/09/17 10:50:15;;;;;;;1.30;1.30;;;21.10;88.30;;;;;;5055348;28;20191;-72
2022/09/17 10:52:47;;;;;;;1.40;1.30;;;21.10;88.90;;;;;;5056516;28;20207;-73
2022/09/17 10:55:33;;;;;;;1.58;1.08;;;21.00;89.00;;;;;;5050736;28;20194;-73
2022/09/17 10:58:08;;;;;;;1.75;0.90;;;21.00;88.40;;;;;;5054378;28;20186;-74
2022/09/17 11:00:43;;;;;;;1.27;1.27;;;21.00;88.90;;;;;;5051320;28;20187;-75
2022/09/17 11:03:37;;;;;;;1.50;1.20;;;21.10;89.20;;;;;;5054188;28;20182;-74
2022/09/17 11:06:29;;;;;;;1.48;0.95;;;21.10;88.20;;;;;;5055957;28;20191;-74
2022/09/17 11:09:07;;;;;;;0.70;0.70;;;21.30;88.30;;;;;;5011721;28;20787;-74
2022/09/17 11:11:52;;;;;;;1.00;1.00;;;21.40;88.60;;;;;;5011271;28;20203;-74
2022/09/17 11:14:37;;;;;;;2.38;0.80;;;21.50;87.50;;;;;;5007895;28;20196;-74
2022/09/17 11:17:24;;;;;;;1.20;1.02;;;21.60;87.20;;;;;;5014765;28;20246;-74
2022/09/17 11:20:20;;;;;;;0.80;0.68;;;21.80;87.70;;;;;;5013465;28;20287;-74
2022/09/17 11:23:11;;;;;;;5.25;1.42;;;21.90;87.20;;;;;;5014605;28;20279;-74
2022/09/17 11:25:42;;;;;;;1.02;0.82;;;22.10;87.10;;;;;;4955526;28;20280;-73
2022/09/17 11:28:45;;;;;;;5.45;1.10;;;22.20;86.50;;;;;;4953288;28;20198;-74
2022/09/17 11:31:35;;;;;;;1.27;1.27;;;22.40;86.50;;;;;;4952732;28;20286;-73
2022/09/17 11:34:31;;;;;;;2.08;0.90;;;22.50;86.60;;;;;;4950337;28;20202;-73
2022/09/17 11:37:15;;;;;;;0.88;0.85;;;22.50;86.10;;;;;;4953266;28;20226;-74
2022/09/17 11:40:10;;;;;;;1.23;1.17;;;22.60;85.60;;;;;;4949727;28;20221;-74
2022/09/17 11:42:49;;;;;;;0.85;0.85;;;22.60;85.40;;;;;;4896988;29;20287;-74
2022/09/17 11:45:17;;;;;;;1.83;1.20;;;22.60;85.30;;;;;;4898064;29;20223;-75
2022/09/17 11:47:51;;;;;;;0.63;0.63;;;22.60;85.60;;;;;;4934137;29;20195;-73
2022/09/17 11:50:39;;;;;;;0.80;0.80;;;22.60;84.80;;;;;;4930463;29;20598;-73
2022/09/17 11:53:28;;;;;;;2.85;0.80;;;22.60;84.90;;;;;;4931669;29;20217;-74
2022/09/17 11:56:04;;;;;;;0.57;0.57;;;22.60;84.80;;;;;;4927672;29;20223;-74
2022/09/17 11:58:36;;;;;;;2.42;1.70;;;22.50;84.70;;;;;;4932623;29;20270;-74
2022/09/17 12:01:06;;;;;;;1.30;1.20;;;22.50;85.60;;;;;;4932373;29;20204;-74
2022/09/17 12:03:38;;;;;;;2.15;1.13;;;22.50;85.20;;;;;;4967298;28;20190;-74
2022/09/17 12:06:14;;;;;;;1.52;0.75;;;22.40;85.70;;;;;;4976515;28;20198;-74
2022/09/17 12:08:59;;;;;;;0.82;0.82;;;22.30;87.20;;;;;;4973654;28;20284;-74
2022/09/17 12:11:33;;;;;;;1.05;0.98;;;22.20;87.60;;;;;;4975098;28;20194;-74
2022/09/17 12:14:12;;;;;;;0.88;0.88;;;22.00;87.40;;;;;;4972347;28;20237;-75
2022/09/17 12:16:44;;;;;;;1.05;0.90;;;21.90;87.90;;;;;;4969605;28;20225;-74
2022/09/17 12:19:25;;;;;;;0.93;0.93;;;21.90;87.50;;;;;;4987046;28;20594;-74
2022/09/17 12:21:57;;;;;;;1.60;0.88;;;21.80;86.70;;;;;;5051219;28;20202;-74
2022/09/17 12:24:24;;;;;;;0.80;0.80;;;21.70;87.90;;;;;;5059108;28;20270;-74
2022/09/17 12:27:01;;;;;;;0.50;0.50;;;21.80;87.60;;;;;;5053392;28;20187;-74
2022/09/17 12:29:45;;;;;;;2.35;0.77;;;21.90;87.30;;;;;;5052078;28;20183;-73
2022/09/17 12:32:11;;;;;;;0.77;0.77;;;21.80;87.00;;;;;;5052179;28;20175;-74
2022/09/17 12:34:45;;;;;;;1.33;0.73;;;21.80;87.20;;;;;;5057908;28;20183;-74
2022/09/17 12:37:40;;;;;;;0.70;0.70;;;21.80;87.20;;;;;;5052668;28;20269;-75
2022/09/17 12:40:30;;;;;;;1.20;0.77;;;21.70;87.80;;;;;;5019425;28;20192;-74
2022/09/17 12:43:08;;;;;;;0.98;0.77;;;21.70;88.40;;;;;;5020445;28;20713;-74
2022/09/17 12:46:06;;;;;;;1.58;0.95;;;21.60;89.30;;;;;;5020661;28;20295;-75
2022/09/17 12:48:49;;;;;;;0.93;0.93;;;21.40;90.10;;;;;;4924316;29;20200;-74
2022/09/17 12:51:43;;;;;;;0.68;0.68;;;21.10;90.30;;;;;;4924089;29;20295;-75
2022/09/17 12:54:21;;;;;;;1.80;0.82;;;21.10;89.60;;;;;;4924008;29;20632;-74
2022/09/17 12:57:18;;;;;;;2.10;0.60;;;21.10;89.90;;;;;;4925024;29;20291;-74
2022/09/17 12:59:57;;;;;;;1.38;0.52;;;21.00;88.10;;;;;;4926206;29;20231;-73
2022/09/17 13:02:45;;;;;;;0.82;0.82;;;21.00;89.30;;;;;;4927306;29;20199;-75
2022/09/17 13:05:25;;;;;;;1.15;0.73;;;21.10;88.30;;;;;;4927047;29;20202;-74
2022/09/17 13:08:32;;;;;;;1.10;0.80;;;21.10;89.70;;;;;;4925492;29;20592;-73
2022/09/17 13:11:09;;;;;;;0.77;0.70;;;21.00;89.10;;;;;;4862730;29;20198;-74
2022/09/17 13:13:50;;;;;;;2.25;0.50;;;21.10;89.80;;;;;;4861420;29;20208;-75
2022/09/17 13:16:28;;;;;;;0.52;0.52;;;21.10;89.40;;;;;;4862553;29;20375;-74